sensor_id;sensor_type;location;lat;lon;timestamp;P1;durP1;ratioP1;P2;durP2;ratioP2
58408;SDS011;44202;52.730;6.470;2022-07-06T00:01:00;2.72;;;1.55;;
58408;SDS011;44202;52.730;6.470;2022-07-06T00:03:26;4.72;;;1.63;;
58408;SDS011;44202;52.730;6.470;2022-07-06T00:05:51;4.47;;;1.70;;
58408;SDS011;44202;52.730;6.470;2022-07-06T00:08:18;3.40;;;1.50;;
58408;SDS011;44202;52.730;6.470;2022-07-06T00:10:44;7.18;;;1.60;;
58408;SDS011;44202;52.730;6.470;2022-07-06T00:13:09;5.47;;;1.80;;
58408;SDS011;44202;52.730;6.470;2022-07-06T00:15:35;5.70;;;1.90;;
58408;SDS011;44202;52.730;6.470;2022-07-06T00:18:01;7.75;;;1.90;;
58408;SDS011;44202;52.730;6.470;2022-07-06T00:20:26;5.35;;;1.80;;
58408;SDS011;44202;52.730;6.470;2022-07-06T00:22:52;6.63;;;1.52;;
58408;SDS011;44202;52.730;6.470;2022-07-06T00:25:17;4.82;;;1.58;;
58408;SDS011;44202;52.730;6.470;2022-07-06T00:27:43;5.10;;;1.50;;
58408;SDS011;44202;52.730;6.470;2022-07-06T00:30:09;6.47;;;1.50;;
58408;SDS011;44202;52.730;6.470;2022-07-06T00:32:34;4.53;;;1.83;;
58408;SDS011;44202;52.730;6.470;2022-07-06T00:35:00;6.68;;;1.75;;
58408;SDS011;44202;52.730;6.470;2022-07-06T00:37:26;4.53;;;1.73;;
58408;SDS011;44202;52.730;6.470;2022-07-06T00:39:51;5.72;;;1.67;;
58408;SDS011;44202;52.730;6.470;2022-07-06T00:42:17;4.50;;;1.85;;
58408;SDS011;44202;52.730;6.470;2022-07-06T00:44:43;3.67;;;1.40;;
58408;SDS011;44202;52.730;6.470;2022-07-06T00:47:08;5.55;;;1.70;;
58408;SDS011;44202;52.730;6.470;2022-07-06T00:49:34;5.97;;;1.67;;
58408;SDS011;44202;52.730;6.470;2022-07-06T00:52:18;7.93;;;1.80;;
58408;SDS011;44202;52.730;6.470;2022-07-06T00:54:44;6.25;;;1.30;;
58408;SDS011;44202;52.730;6.470;2022-07-06T00:57:11;3.88;;;1.42;;
58408;SDS011;44202;52.730;6.470;2022-07-06T00:59:37;2.63;;;1.20;;
58408;SDS011;44202;52.730;6.470;2022-07-06T01:02:03;3.58;;;1.30;;
58408;SDS011;44202;52.730;6.470;2022-07-06T01:04:28;8.60;;;1.58;;
58408;SDS011;44202;52.730;6.470;2022-07-06T01:06:54;6.53;;;1.80;;
58408;SDS011;44202;52.730;6.470;2022-07-06T01:09:21;6.95;;;1.63;;
58408;SDS011;44202;52.730;6.470;2022-07-06T01:11:47;7.40;;;1.70;;
58408;SDS011;44202;52.730;6.470;2022-07-06T01:14:14;4.55;;;1.42;;
58408;SDS011;44202;52.730;6.470;2022-07-06T01:16:40;7.50;;;1.80;;
58408;SDS011;44202;52.730;6.470;2022-07-06T01:19:06;6.18;;;1.40;;
58408;SDS011;44202;52.730;6.470;2022-07-06T01:21:31;5.10;;;1.50;;
58408;SDS011;44202;52.730;6.470;2022-07-06T01:23:57;3.38;;;1.40;;
58408;SDS011;44202;52.730;6.470;2022-07-06T01:26:23;5.07;;;1.45;;
58408;SDS011;44202;52.730;6.470;2022-07-06T01:28:49;10.85;;;1.42;;
58408;SDS011;44202;52.730;6.470;2022-07-06T01:31:20;4.82;;;1.55;;
58408;SDS011;44202;52.730;6.470;2022-07-06T01:33:48;4.18;;;1.40;;
58408;SDS011;44202;52.730;6.470;2022-07-06T01:36:14;2.35;;;1.20;;
58408;SDS011;44202;52.730;6.470;2022-07-06T01:38:50;4.93;;;1.50;;
58408;SDS011;44202;52.730;6.470;2022-07-06T01:41:17;4.60;;;1.30;;
58408;SDS011;44202;52.730;6.470;2022-07-06T01:43:43;2.65;;;1.20;;
58408;SDS011;44202;52.730;6.470;2022-07-06T01:46:10;3.53;;;1.50;;
58408;SDS011;44202;52.730;6.470;2022-07-06T01:48:36;4.40;;;1.58;;
58408;SDS011;44202;52.730;6.470;2022-07-06T01:51:02;6.07;;;1.50;;
58408;SDS011;44202;52.730;6.470;2022-07-06T01:53:29;4.55;;;1.27;;
58408;SDS011;44202;52.730;6.470;2022-07-06T01:55:55;3.83;;;1.33;;
58408;SDS011;44202;52.730;6.470;2022-07-06T01:58:20;2.83;;;1.20;;
58408;SDS011;44202;52.730;6.470;2022-07-06T02:00:46;3.67;;;1.20;;
58408;SDS011;44202;52.730;6.470;2022-07-06T02:03:12;4.25;;;1.27;;
58408;SDS011;44202;52.730;6.470;2022-07-06T02:05:38;6.28;;;1.40;;
58408;SDS011;44202;52.730;6.470;2022-07-06T02:08:04;3.25;;;1.48;;
58408;SDS011;44202;52.730;6.470;2022-07-06T02:10:30;3.67;;;1.17;;
58408;SDS011;44202;52.730;6.470;2022-07-06T02:12:56;4.20;;;1.40;;
58408;SDS011;44202;52.730;6.470;2022-07-06T02:15:21;4.47;;;1.13;;
58408;SDS011;44202;52.730;6.470;2022-07-06T02:17:47;6.20;;;1.40;;
58408;SDS011;44202;52.730;6.470;2022-07-06T02:20:13;2.90;;;1.15;;
58408;SDS011;44202;52.730;6.470;2022-07-06T02:22:38;5.57;;;1.55;;
58408;SDS011;44202;52.730;6.470;2022-07-06T02:25:04;5.97;;;1.35;;
58408;SDS011;44202;52.730;6.470;2022-07-06T02:27:30;5.47;;;1.45;;
58408;SDS011;44202;52.730;6.470;2022-07-06T02:29:56;5.05;;;1.35;;
58408;SDS011;44202;52.730;6.470;2022-07-06T02:32:22;6.90;;;1.27;;
58408;SDS011;44202;52.730;6.470;2022-07-06T02:34:47;3.95;;;0.90;;
58408;SDS011;44202;52.730;6.470;2022-07-06T02:37:13;6.97;;;1.17;;
58408;SDS011;44202;52.730;6.470;2022-07-06T02:39:39;5.65;;;1.13;;
58408;SDS011;44202;52.730;6.470;2022-07-06T02:42:05;4.82;;;1.70;;
58408;SDS011;44202;52.730;6.470;2022-07-06T02:44:30;6.30;;;1.33;;
58408;SDS011;44202;52.730;6.470;2022-07-06T02:46:56;6.18;;;1.50;;
58408;SDS011;44202;52.730;6.470;2022-07-06T02:49:22;6.07;;;1.50;;
58408;SDS011;44202;52.730;6.470;2022-07-06T02:51:48;5.72;;;1.10;;
58408;SDS011;44202;52.730;6.470;2022-07-06T02:54:13;5.60;;;1.20;;
58408;SDS011;44202;52.730;6.470;2022-07-06T02:56:39;5.47;;;1.30;;
58408;SDS011;44202;52.730;6.470;2022-07-06T02:59:04;3.95;;;1.10;;
58408;SDS011;44202;52.730;6.470;2022-07-06T03:01:30;5.57;;;1.30;;
58408;SDS011;44202;52.730;6.470;2022-07-06T03:03:56;5.85;;;1.58;;
58408;SDS011;44202;52.730;6.470;2022-07-06T03:06:21;5.68;;;1.55;;
58408;SDS011;44202;52.730;6.470;2022-07-06T03:08:47;4.47;;;1.27;;
58408;SDS011;44202;52.730;6.470;2022-07-06T03:11:13;7.40;;;1.60;;
58408;SDS011;44202;52.730;6.470;2022-07-06T03:13:38;4.93;;;1.50;;
58408;SDS011;44202;52.730;6.470;2022-07-06T03:16:04;5.65;;;1.40;;
58408;SDS011;44202;52.730;6.470;2022-07-06T03:18:29;5.03;;;1.70;;
58408;SDS011;44202;52.730;6.470;2022-07-06T03:20:55;5.88;;;1.75;;
58408;SDS011;44202;52.730;6.470;2022-07-06T03:23:21;5.95;;;1.50;;
58408;SDS011;44202;52.730;6.470;2022-07-06T03:25:46;6.63;;;1.73;;
58408;SDS011;44202;52.730;6.470;2022-07-06T03:28:12;7.38;;;1.75;;
58408;SDS011;44202;52.730;6.470;2022-07-06T03:30:38;7.25;;;1.42;;
58408;SDS011;44202;52.730;6.470;2022-07-06T03:33:03;10.00;;;1.63;;
58408;SDS011;44202;52.730;6.470;2022-07-06T03:35:29;9.45;;;1.83;;
58408;SDS011;44202;52.730;6.470;2022-07-06T03:37:55;7.55;;;1.83;;
58408;SDS011;44202;52.730;6.470;2022-07-06T03:40:20;7.13;;;1.40;;
58408;SDS011;44202;52.730;6.470;2022-07-06T03:42:46;8.02;;;1.73;;
58408;SDS011;44202;52.730;6.470;2022-07-06T03:45:12;3.75;;;1.35;;
58408;SDS011;44202;52.730;6.470;2022-07-06T03:47:37;4.00;;;1.50;;
58408;SDS011;44202;52.730;6.470;2022-07-06T03:50:03;5.88;;;1.75;;
58408;SDS011;44202;52.730;6.470;2022-07-06T03:52:29;8.20;;;1.60;;
58408;SDS011;44202;52.730;6.470;2022-07-06T03:54:55;5.72;;;1.42;;
58408;SDS011;44202;52.730;6.470;2022-07-06T03:57:21;7.28;;;1.73;;
58408;SDS011;44202;52.730;6.470;2022-07-06T03:59:47;6.38;;;1.60;;
58408;SDS011;44202;52.730;6.470;2022-07-06T04:02:13;6.82;;;1.52;;
58408;SDS011;44202;52.730;6.470;2022-07-06T04:04:38;4.63;;;1.83;;
58408;SDS011;44202;52.730;6.470;2022-07-06T04:07:04;6.93;;;1.48;;
58408;SDS011;44202;52.730;6.470;2022-07-06T04:09:29;5.30;;;1.35;;
58408;SDS011;44202;52.730;6.470;2022-07-06T04:11:55;6.38;;;1.70;;
58408;SDS011;44202;52.730;6.470;2022-07-06T04:14:21;6.72;;;1.73;;
58408;SDS011;44202;52.730;6.470;2022-07-06T04:16:47;7.43;;;1.80;;
58408;SDS011;44202;52.730;6.470;2022-07-06T04:19:13;3.85;;;1.17;;
58408;SDS011;44202;52.730;6.470;2022-07-06T04:21:39;4.80;;;1.33;;
58408;SDS011;44202;52.730;6.470;2022-07-06T04:24:05;4.03;;;1.10;;
58408;SDS011;44202;52.730;6.470;2022-07-06T04:26:30;5.15;;;1.73;;
58408;SDS011;44202;52.730;6.470;2022-07-06T04:28:56;3.30;;;1.15;;
58408;SDS011;44202;52.730;6.470;2022-07-06T04:31:22;7.40;;;1.60;;
58408;SDS011;44202;52.730;6.470;2022-07-06T04:33:47;4.55;;;1.60;;
58408;SDS011;44202;52.730;6.470;2022-07-06T04:36:13;7.13;;;1.20;;
58408;SDS011;44202;52.730;6.470;2022-07-06T04:38:38;4.53;;;1.35;;
58408;SDS011;44202;52.730;6.470;2022-07-06T04:41:04;5.85;;;1.10;;
58408;SDS011;44202;52.730;6.470;2022-07-06T04:43:30;2.83;;;1.38;;
58408;SDS011;44202;52.730;6.470;2022-07-06T04:45:56;2.67;;;1.17;;
58408;SDS011;44202;52.730;6.470;2022-07-06T04:48:21;7.95;;;1.95;;
58408;SDS011;44202;52.730;6.470;2022-07-06T04:50:47;4.18;;;1.10;;
58408;SDS011;44202;52.730;6.470;2022-07-06T04:53:12;6.35;;;1.10;;
58408;SDS011;44202;52.730;6.470;2022-07-06T04:55:38;6.20;;;1.20;;
58408;SDS011;44202;52.730;6.470;2022-07-06T04:58:04;7.28;;;1.60;;
58408;SDS011;44202;52.730;6.470;2022-07-06T05:00:29;9.18;;;1.50;;
58408;SDS011;44202;52.730;6.470;2022-07-06T05:02:57;7.05;;;1.23;;
58408;SDS011;44202;52.730;6.470;2022-07-06T05:05:23;5.22;;;1.38;;
58408;SDS011;44202;52.730;6.470;2022-07-06T05:07:49;6.15;;;1.05;;
58408;SDS011;44202;52.730;6.470;2022-07-06T05:10:14;3.10;;;0.80;;
58408;SDS011;44202;52.730;6.470;2022-07-06T05:12:40;5.85;;;1.00;;
58408;SDS011;44202;52.730;6.470;2022-07-06T05:15:06;5.22;;;1.70;;
58408;SDS011;44202;52.730;6.470;2022-07-06T05:17:32;4.30;;;0.85;;
58408;SDS011;44202;52.730;6.470;2022-07-06T05:19:58;6.57;;;1.33;;
58408;SDS011;44202;52.730;6.470;2022-07-06T05:22:23;5.63;;;1.17;;
58408;SDS011;44202;52.730;6.470;2022-07-06T05:24:49;5.03;;;1.00;;
58408;SDS011;44202;52.730;6.470;2022-07-06T05:27:15;6.78;;;1.08;;
58408;SDS011;44202;52.730;6.470;2022-07-06T05:29:41;4.05;;;0.80;;
58408;SDS011;44202;52.730;6.470;2022-07-06T05:32:07;5.05;;;1.15;;
58408;SDS011;44202;52.730;6.470;2022-07-06T05:34:32;4.70;;;0.88;;
58408;SDS011;44202;52.730;6.470;2022-07-06T05:36:58;5.22;;;1.10;;
58408;SDS011;44202;52.730;6.470;2022-07-06T05:39:24;8.52;;;1.00;;
58408;SDS011;44202;52.730;6.470;2022-07-06T05:41:49;5.65;;;0.80;;
58408;SDS011;44202;52.730;6.470;2022-07-06T05:44:15;5.38;;;1.15;;
58408;SDS011;44202;52.730;6.470;2022-07-06T05:46:40;6.90;;;0.82;;
58408;SDS011;44202;52.730;6.470;2022-07-06T05:49:06;2.08;;;0.55;;
58408;SDS011;44202;52.730;6.470;2022-07-06T05:51:51;3.33;;;0.70;;
58408;SDS011;44202;52.730;6.470;2022-07-06T05:54:16;3.65;;;0.70;;
58408;SDS011;44202;52.730;6.470;2022-07-06T05:56:42;4.05;;;0.68;;
58408;SDS011;44202;52.730;6.470;2022-07-06T05:59:08;3.17;;;0.50;;
58408;SDS011;44202;52.730;6.470;2022-07-06T06:01:34;3.33;;;0.60;;
58408;SDS011;44202;52.730;6.470;2022-07-06T06:04:00;2.92;;;0.70;;
58408;SDS011;44202;52.730;6.470;2022-07-06T06:06:26;5.90;;;0.68;;
58408;SDS011;44202;52.730;6.470;2022-07-06T06:08:52;3.03;;;0.60;;
58408;SDS011;44202;52.730;6.470;2022-07-06T06:11:17;4.53;;;0.85;;
58408;SDS011;44202;52.730;6.470;2022-07-06T06:13:43;3.67;;;0.50;;
58408;SDS011;44202;52.730;6.470;2022-07-06T06:16:09;8.82;;;0.90;;
58408;SDS011;44202;52.730;6.470;2022-07-06T06:18:35;5.07;;;0.45;;
58408;SDS011;44202;52.730;6.470;2022-07-06T06:21:00;3.15;;;0.57;;
58408;SDS011;44202;52.730;6.470;2022-07-06T06:23:26;6.10;;;0.82;;
58408;SDS011;44202;52.730;6.470;2022-07-06T06:25:52;4.45;;;0.57;;
58408;SDS011;44202;52.730;6.470;2022-07-06T06:28:18;2.83;;;0.50;;
58408;SDS011;44202;52.730;6.470;2022-07-06T06:30:43;2.45;;;0.50;;
58408;SDS011;44202;52.730;6.470;2022-07-06T06:35:35;1.20;;;0.38;;
58408;SDS011;44202;52.730;6.470;2022-07-06T06:38:01;3.78;;;0.80;;
58408;SDS011;44202;52.730;6.470;2022-07-06T06:40:26;4.85;;;1.00;;
58408;SDS011;44202;52.730;6.470;2022-07-06T06:42:52;3.00;;;0.57;;
58408;SDS011;44202;52.730;6.470;2022-07-06T06:45:18;5.53;;;0.85;;
58408;SDS011;44202;52.730;6.470;2022-07-06T06:47:43;5.50;;;0.90;;
58408;SDS011;44202;52.730;6.470;2022-07-06T06:50:09;3.05;;;0.57;;
58408;SDS011;44202;52.730;6.470;2022-07-06T06:52:34;1.52;;;0.50;;
58408;SDS011;44202;52.730;6.470;2022-07-06T06:55:00;4.05;;;0.80;;
58408;SDS011;44202;52.730;6.470;2022-07-06T06:57:26;4.82;;;0.80;;
58408;SDS011;44202;52.730;6.470;2022-07-06T06:59:53;3.88;;;0.70;;
58408;SDS011;44202;52.730;6.470;2022-07-06T07:02:19;10.27;;;1.00;;
58408;SDS011;44202;52.730;6.470;2022-07-06T07:04:45;3.05;;;0.50;;
58408;SDS011;44202;52.730;6.470;2022-07-06T07:07:11;8.02;;;0.77;;
58408;SDS011;44202;52.730;6.470;2022-07-06T07:09:36;2.83;;;0.50;;
58408;SDS011;44202;52.730;6.470;2022-07-06T07:12:02;2.42;;;0.50;;
58408;SDS011;44202;52.730;6.470;2022-07-06T07:14:28;2.30;;;0.70;;
58408;SDS011;44202;52.730;6.470;2022-07-06T07:16:54;3.30;;;0.75;;
58408;SDS011;44202;52.730;6.470;2022-07-06T07:19:19;3.03;;;0.40;;
58408;SDS011;44202;52.730;6.470;2022-07-06T07:21:45;6.60;;;0.75;;
58408;SDS011;44202;52.730;6.470;2022-07-06T07:24:11;5.57;;;0.75;;
58408;SDS011;44202;52.730;6.470;2022-07-06T07:26:36;3.70;;;0.70;;
58408;SDS011;44202;52.730;6.470;2022-07-06T07:29:02;2.25;;;0.55;;
58408;SDS011;44202;52.730;6.470;2022-07-06T07:31:28;5.03;;;0.45;;
58408;SDS011;44202;52.730;6.470;2022-07-06T07:33:54;4.05;;;0.52;;
58408;SDS011;44202;52.730;6.470;2022-07-06T07:36:22;3.50;;;0.60;;
58408;SDS011;44202;52.730;6.470;2022-07-06T07:38:49;5.50;;;0.70;;
58408;SDS011;44202;52.730;6.470;2022-07-06T07:41:14;3.80;;;0.85;;
58408;SDS011;44202;52.730;6.470;2022-07-06T07:43:41;3.90;;;0.60;;
58408;SDS011;44202;52.730;6.470;2022-07-06T07:46:07;5.45;;;0.60;;
58408;SDS011;44202;52.730;6.470;2022-07-06T07:48:33;3.45;;;0.60;;
58408;SDS011;44202;52.730;6.470;2022-07-06T07:50:59;5.78;;;0.60;;
58408;SDS011;44202;52.730;6.470;2022-07-06T07:53:24;3.22;;;0.40;;
58408;SDS011;44202;52.730;6.470;2022-07-06T07:55:50;4.88;;;0.50;;
58408;SDS011;44202;52.730;6.470;2022-07-06T07:58:16;4.20;;;0.60;;
58408;SDS011;44202;52.730;6.470;2022-07-06T08:00:41;2.33;;;0.45;;
58408;SDS011;44202;52.730;6.470;2022-07-06T08:03:07;2.75;;;0.70;;
58408;SDS011;44202;52.730;6.470;2022-07-06T08:05:33;3.65;;;0.55;;
58408;SDS011;44202;52.730;6.470;2022-07-06T08:07:58;2.42;;;0.55;;
58408;SDS011;44202;52.730;6.470;2022-07-06T08:10:24;3.28;;;0.90;;
58408;SDS011;44202;52.730;6.470;2022-07-06T08:12:50;3.33;;;0.70;;
58408;SDS011;44202;52.730;6.470;2022-07-06T08:15:15;4.57;;;0.60;;
58408;SDS011;44202;52.730;6.470;2022-07-06T08:17:41;3.50;;;0.55;;
58408;SDS011;44202;52.730;6.470;2022-07-06T08:20:07;3.53;;;0.55;;
58408;SDS011;44202;52.730;6.470;2022-07-06T08:22:36;3.33;;;0.50;;
58408;SDS011;44202;52.730;6.470;2022-07-06T08:25:03;2.60;;;0.60;;
58408;SDS011;44202;52.730;6.470;2022-07-06T08:27:29;2.92;;;0.43;;
58408;SDS011;44202;52.730;6.470;2022-07-06T08:29:55;5.13;;;0.75;;
58408;SDS011;44202;52.730;6.470;2022-07-06T08:32:20;2.72;;;0.30;;
58408;SDS011;44202;52.730;6.470;2022-07-06T08:34:47;5.43;;;0.63;;
58408;SDS011;44202;52.730;6.470;2022-07-06T08:37:12;3.42;;;0.60;;
58408;SDS011;44202;52.730;6.470;2022-07-06T08:39:38;3.35;;;0.40;;
58408;SDS011;44202;52.730;6.470;2022-07-06T08:42:04;3.20;;;0.57;;
58408;SDS011;44202;52.730;6.470;2022-07-06T08:44:32;3.05;;;0.60;;
58408;SDS011;44202;52.730;6.470;2022-07-06T08:47:00;5.50;;;0.50;;
58408;SDS011;44202;52.730;6.470;2022-07-06T08:49:29;2.90;;;0.50;;
58408;SDS011;44202;52.730;6.470;2022-07-06T08:51:57;2.35;;;0.50;;
58408;SDS011;44202;52.730;6.470;2022-07-06T08:54:23;2.97;;;0.40;;
58408;SDS011;44202;52.730;6.470;2022-07-06T08:56:49;4.28;;;0.63;;
58408;SDS011;44202;52.730;6.470;2022-07-06T08:59:15;3.20;;;0.50;;
58408;SDS011;44202;52.730;6.470;2022-07-06T09:01:41;2.08;;;0.40;;
58408;SDS011;44202;52.730;6.470;2022-07-06T09:04:09;2.88;;;0.60;;
58408;SDS011;44202;52.730;6.470;2022-07-06T09:06:38;2.97;;;0.43;;
58408;SDS011;44202;52.730;6.470;2022-07-06T09:09:08;3.43;;;0.50;;
58408;SDS011;44202;52.730;6.470;2022-07-06T09:11:35;1.95;;;0.40;;
58408;SDS011;44202;52.730;6.470;2022-07-06T09:14:02;5.15;;;0.80;;
58408;SDS011;44202;52.730;6.470;2022-07-06T09:16:29;6.03;;;0.80;;
58408;SDS011;44202;52.730;6.470;2022-07-06T09:18:55;2.00;;;0.30;;
58408;SDS011;44202;52.730;6.470;2022-07-06T09:21:25;7.70;;;0.63;;
58408;SDS011;44202;52.730;6.470;2022-07-06T09:26:19;3.85;;;0.77;;
58408;SDS011;44202;52.730;6.470;2022-07-06T09:28:45;1.70;;;0.63;;
58408;SDS011;44202;52.730;6.470;2022-07-06T09:31:11;2.65;;;0.30;;
58408;SDS011;44202;52.730;6.470;2022-07-06T09:33:38;5.75;;;0.68;;
58408;SDS011;44202;52.730;6.470;2022-07-06T09:36:17;1.05;;;0.20;;
58408;SDS011;44202;52.730;6.470;2022-07-06T09:41:47;3.03;;;0.60;;
58408;SDS011;44202;52.730;6.470;2022-07-06T09:44:27;2.63;;;0.50;;
58408;SDS011;44202;52.730;6.470;2022-07-06T09:46:58;6.78;;;0.52;;
58408;SDS011;44202;52.730;6.470;2022-07-06T09:49:25;2.72;;;0.40;;
58408;SDS011;44202;52.730;6.470;2022-07-06T09:51:52;1.58;;;0.40;;
58408;SDS011;44202;52.730;6.470;2022-07-06T09:54:20;1.38;;;0.32;;
58408;SDS011;44202;52.730;6.470;2022-07-06T09:56:46;2.25;;;0.35;;
58408;SDS011;44202;52.730;6.470;2022-07-06T09:59:16;2.75;;;0.28;;
58408;SDS011;44202;52.730;6.470;2022-07-06T10:01:43;3.63;;;0.50;;
58408;SDS011;44202;52.730;6.470;2022-07-06T10:04:10;2.08;;;0.30;;
58408;SDS011;44202;52.730;6.470;2022-07-06T10:06:38;2.00;;;0.40;;
58408;SDS011;44202;52.730;6.470;2022-07-06T10:09:05;2.65;;;0.80;;
58408;SDS011;44202;52.730;6.470;2022-07-06T10:11:33;1.73;;;0.47;;
58408;SDS011;44202;52.730;6.470;2022-07-06T10:14:03;3.55;;;0.52;;
58408;SDS011;44202;52.730;6.470;2022-07-06T10:16:31;3.13;;;0.50;;
58408;SDS011;44202;52.730;6.470;2022-07-06T10:18:58;3.03;;;0.47;;
58408;SDS011;44202;52.730;6.470;2022-07-06T10:21:26;2.60;;;0.50;;
58408;SDS011;44202;52.730;6.470;2022-07-06T10:23:52;3.60;;;0.55;;
58408;SDS011;44202;52.730;6.470;2022-07-06T10:26:19;4.38;;;0.50;;
58408;SDS011;44202;52.730;6.470;2022-07-06T10:28:48;1.90;;;0.43;;
58408;SDS011;44202;52.730;6.470;2022-07-06T10:31:15;1.30;;;0.40;;
58408;SDS011;44202;52.730;6.470;2022-07-06T10:33:42;2.30;;;0.50;;
58408;SDS011;44202;52.730;6.470;2022-07-06T10:36:09;1.15;;;0.30;;
58408;SDS011;44202;52.730;6.470;2022-07-06T10:38:35;1.88;;;0.50;;
58408;SDS011;44202;52.730;6.470;2022-07-06T10:41:02;5.28;;;0.68;;
58408;SDS011;44202;52.730;6.470;2022-07-06T10:43:35;5.38;;;0.68;;
58408;SDS011;44202;52.730;6.470;2022-07-06T10:46:06;4.25;;;0.45;;
58408;SDS011;44202;52.730;6.470;2022-07-06T10:48:53;3.72;;;0.40;;
58408;SDS011;44202;52.730;6.470;2022-07-06T10:51:29;3.80;;;0.60;;
58408;SDS011;44202;52.730;6.470;2022-07-06T10:54:05;2.50;;;0.70;;
58408;SDS011;44202;52.730;6.470;2022-07-06T10:56:31;5.03;;;0.73;;
58408;SDS011;44202;52.730;6.470;2022-07-06T10:59:01;4.35;;;0.52;;
58408;SDS011;44202;52.730;6.470;2022-07-06T11:01:33;3.17;;;0.75;;
58408;SDS011;44202;52.730;6.470;2022-07-06T11:06:26;3.17;;;0.50;;
58408;SDS011;44202;52.730;6.470;2022-07-06T11:08:55;2.95;;;0.50;;
58408;SDS011;44202;52.730;6.470;2022-07-06T11:19:26;6.05;;;0.50;;
58408;SDS011;44202;52.730;6.470;2022-07-06T11:21:57;3.33;;;0.60;;
58408;SDS011;44202;52.730;6.470;2022-07-06T11:24:30;2.47;;;0.47;;
58408;SDS011;44202;52.730;6.470;2022-07-06T11:26:59;4.70;;;0.63;;
58408;SDS011;44202;52.730;6.470;2022-07-06T11:29:26;1.63;;;0.35;;
58408;SDS011;44202;52.730;6.470;2022-07-06T11:31:54;2.03;;;0.43;;
58408;SDS011;44202;52.730;6.470;2022-07-06T11:34:27;2.85;;;0.60;;
58408;SDS011;44202;52.730;6.470;2022-07-06T11:37:04;3.17;;;0.52;;
58408;SDS011;44202;52.730;6.470;2022-07-06T11:39:33;2.97;;;0.60;;
58408;SDS011;44202;52.730;6.470;2022-07-06T11:42:01;2.63;;;0.50;;
58408;SDS011;44202;52.730;6.470;2022-07-06T11:44:29;2.85;;;0.50;;
58408;SDS011;44202;52.730;6.470;2022-07-06T11:46:55;1.63;;;0.50;;
58408;SDS011;44202;52.730;6.470;2022-07-06T11:49:22;3.55;;;0.57;;
58408;SDS011;44202;52.730;6.470;2022-07-06T11:51:48;1.90;;;0.40;;
58408;SDS011;44202;52.730;6.470;2022-07-06T11:54:15;3.03;;;0.50;;
58408;SDS011;44202;52.730;6.470;2022-07-06T11:56:49;2.72;;;0.40;;
58408;SDS011;44202;52.730;6.470;2022-07-06T11:59:26;1.90;;;0.57;;
58408;SDS011;44202;52.730;6.470;2022-07-06T12:01:59;1.88;;;0.30;;
58408;SDS011;44202;52.730;6.470;2022-07-06T12:04:30;6.07;;;0.98;;
58408;SDS011;44202;52.730;6.470;2022-07-06T12:07:00;2.90;;;0.60;;
58408;SDS011;44202;52.730;6.470;2022-07-06T12:09:34;2.95;;;0.63;;
58408;SDS011;44202;52.730;6.470;2022-07-06T12:12:01;1.52;;;0.28;;
58408;SDS011;44202;52.730;6.470;2022-07-06T12:14:28;3.28;;;0.70;;
58408;SDS011;44202;52.730;6.470;2022-07-06T12:16:55;3.58;;;0.60;;
58408;SDS011;44202;52.730;6.470;2022-07-06T12:19:21;2.53;;;0.70;;
58408;SDS011;44202;52.730;6.470;2022-07-06T12:21:48;1.10;;;0.43;;
58408;SDS011;44202;52.730;6.470;2022-07-06T12:24:22;1.10;;;0.40;;
58408;SDS011;44202;52.730;6.470;2022-07-06T12:26:53;2.22;;;0.50;;
58408;SDS011;44202;52.730;6.470;2022-07-06T12:29:19;2.67;;;0.60;;
58408;SDS011;44202;52.730;6.470;2022-07-06T12:36:48;2.63;;;0.60;;
58408;SDS011;44202;52.730;6.470;2022-07-06T12:39:15;1.88;;;0.70;;
58408;SDS011;44202;52.730;6.470;2022-07-06T12:41:47;2.60;;;0.43;;
58408;SDS011;44202;52.730;6.470;2022-07-06T12:44:19;1.65;;;0.70;;
58408;SDS011;44202;52.730;6.470;2022-07-06T12:46:47;1.88;;;0.90;;
58408;SDS011;44202;52.730;6.470;2022-07-06T12:51:54;2.75;;;0.70;;
58408;SDS011;44202;52.730;6.470;2022-07-06T12:54:30;1.88;;;0.70;;
58408;SDS011;44202;52.730;6.470;2022-07-06T12:59:31;8.82;;;0.80;;
58408;SDS011;44202;52.730;6.470;2022-07-06T13:02:02;2.22;;;0.50;;
58408;SDS011;44202;52.730;6.470;2022-07-06T13:04:30;1.40;;;0.50;;
58408;SDS011;44202;52.730;6.470;2022-07-06T13:07:00;2.65;;;0.60;;
58408;SDS011;44202;52.730;6.470;2022-07-06T13:09:27;4.75;;;0.60;;
58408;SDS011;44202;52.730;6.470;2022-07-06T13:11:53;2.10;;;0.50;;
58408;SDS011;44202;52.730;6.470;2022-07-06T13:14:19;4.13;;;0.60;;
58408;SDS011;44202;52.730;6.470;2022-07-06T13:16:45;4.63;;;0.75;;
58408;SDS011;44202;52.730;6.470;2022-07-06T13:19:12;3.53;;;0.60;;
58408;SDS011;44202;52.730;6.470;2022-07-06T13:21:38;4.85;;;0.40;;
58408;SDS011;44202;52.730;6.470;2022-07-06T13:24:04;1.38;;;0.40;;
58408;SDS011;44202;52.730;6.470;2022-07-06T13:26:30;4.00;;;0.60;;
58408;SDS011;44202;52.730;6.470;2022-07-06T13:29:01;6.50;;;0.60;;
58408;SDS011;44202;52.730;6.470;2022-07-06T13:31:28;4.03;;;0.60;;
58408;SDS011;44202;52.730;6.470;2022-07-06T13:33:54;3.60;;;0.60;;
58408;SDS011;44202;52.730;6.470;2022-07-06T13:36:20;4.13;;;0.63;;
58408;SDS011;44202;52.730;6.470;2022-07-06T13:38:46;2.45;;;0.50;;
58408;SDS011;44202;52.730;6.470;2022-07-06T13:41:12;2.63;;;0.52;;
58408;SDS011;44202;52.730;6.470;2022-07-06T13:43:37;1.88;;;0.40;;
58408;SDS011;44202;52.730;6.470;2022-07-06T13:46:06;2.42;;;0.40;;
58408;SDS011;44202;52.730;6.470;2022-07-06T13:48:33;2.88;;;0.50;;
58408;SDS011;44202;52.730;6.470;2022-07-06T13:50:59;4.80;;;0.50;;
58408;SDS011;44202;52.730;6.470;2022-07-06T13:53:25;4.32;;;0.60;;
58408;SDS011;44202;52.730;6.470;2022-07-06T13:55:51;1.45;;;0.50;;
58408;SDS011;44202;52.730;6.470;2022-07-06T13:58:17;3.03;;;0.40;;
58408;SDS011;44202;52.730;6.470;2022-07-06T14:00:44;2.22;;;0.50;;
58408;SDS011;44202;52.730;6.470;2022-07-06T14:03:09;3.35;;;0.60;;
58408;SDS011;44202;52.730;6.470;2022-07-06T14:05:35;2.42;;;0.57;;
58408;SDS011;44202;52.730;6.470;2022-07-06T14:08:01;3.38;;;0.57;;
58408;SDS011;44202;52.730;6.470;2022-07-06T14:10:27;1.02;;;0.50;;
58408;SDS011;44202;52.730;6.470;2022-07-06T14:12:53;1.92;;;0.45;;
58408;SDS011;44202;52.730;6.470;2022-07-06T14:15:19;3.40;;;0.57;;
58408;SDS011;44202;52.730;6.470;2022-07-06T14:17:45;1.10;;;0.40;;
58408;SDS011;44202;52.730;6.470;2022-07-06T14:20:12;1.98;;;0.55;;
58408;SDS011;44202;52.730;6.470;2022-07-06T14:22:38;2.42;;;0.45;;
58408;SDS011;44202;52.730;6.470;2022-07-06T14:25:04;4.00;;;0.55;;
58408;SDS011;44202;52.730;6.470;2022-07-06T14:27:32;2.58;;;0.82;;
58408;SDS011;44202;52.730;6.470;2022-07-06T14:30:01;1.63;;;0.60;;
58408;SDS011;44202;52.730;6.470;2022-07-06T14:32:27;4.03;;;0.70;;
58408;SDS011;44202;52.730;6.470;2022-07-06T14:34:52;4.53;;;0.73;;
58408;SDS011;44202;52.730;6.470;2022-07-06T14:37:18;2.35;;;0.70;;
58408;SDS011;44202;52.730;6.470;2022-07-06T14:39:44;3.15;;;0.80;;
58408;SDS011;44202;52.730;6.470;2022-07-06T14:42:11;2.33;;;0.70;;
58408;SDS011;44202;52.730;6.470;2022-07-06T14:44:37;2.40;;;0.60;;
58408;SDS011;44202;52.730;6.470;2022-07-06T14:47:03;6.28;;;0.60;;
58408;SDS011;44202;52.730;6.470;2022-07-06T14:49:29;3.70;;;0.60;;
58408;SDS011;44202;52.730;6.470;2022-07-06T14:51:55;2.33;;;0.63;;
58408;SDS011;44202;52.730;6.470;2022-07-06T14:54:22;1.90;;;0.60;;
58408;SDS011;44202;52.730;6.470;2022-07-06T14:56:51;3.28;;;0.57;;
58408;SDS011;44202;52.730;6.470;2022-07-06T14:59:17;3.90;;;0.70;;
58408;SDS011;44202;52.730;6.470;2022-07-06T15:01:43;5.53;;;0.80;;
58408;SDS011;44202;52.730;6.470;2022-07-06T15:04:09;2.85;;;0.52;;
58408;SDS011;44202;52.730;6.470;2022-07-06T15:06:35;2.45;;;0.65;;
58408;SDS011;44202;52.730;6.470;2022-07-06T15:09:01;2.20;;;0.73;;
58408;SDS011;44202;52.730;6.470;2022-07-06T15:11:29;3.38;;;0.70;;
58408;SDS011;44202;52.730;6.470;2022-07-06T15:13:56;2.80;;;0.70;;